Time;durP1;ratioP1;P1;durP2;ratioP2;P2;SDS_P1;SDS_P2;PMS_P1;PMS_P2;Temp;Humidity;BMP_temperature;BMP_pressure;BME280_temperature;BME280_humidity;BME280_pressure;Samples;Min_cycle;Max_cycle;Signal;HPM_P1;HPM_P2
2022/11/30 00:00:49;;;;;;;;;;;;;;;10.03;65.04;99082.84;5036208;28;20288;-69
2022/11/30 00:03:14;;;;;;;;;;;;;;;10.02;65.03;99083.78;5053902;28;19924;-69
2022/11/30 00:05:40;;;;;;;;;;;;;;;10.01;64.95;99089.91;5035810;28;19943;-69
2022/11/30 00:08:05;;;;;;;;;;;;;;;10.01;64.87;99088.16;5035781;28;19916;-69
2022/11/30 00:10:30;;;;;;;;;;;;;;;10.00;64.95;99090.88;5035628;28;19975;-69
2022/11/30 00:12:56;;;;;;;;;;;;;;;9.99;65.06;99089.19;5035763;28;20020;-69
2022/11/30 00:15:21;;;;;;;;;;;;;;;10.00;64.83;99085.66;5053370;28;19917;-70
2022/11/30 00:17:46;;;;;;;;;;;;;;;9.99;64.99;99083.97;5053588;28;19924;-69
2022/11/30 00:20:12;;;;;;;;;;;;;;;10.00;64.83;99090.88;5035525;28;20346;-70
2022/11/30 00:22:37;;;;;;;;;;;;;;;9.99;64.98;99084.81;5036167;28;20399;-68
2022/11/30 00:25:03;;;;;;;;;;;;;;;9.99;64.91;99090.03;5052829;28;19947;-69
2022/11/30 00:27:32;;;;;;;;;;;;;;;9.98;64.94;99092.72;5052063;28;19917;-69
2022/11/30 00:29:57;;;;;;;;;;;;;;;9.98;64.79;99090.97;5053583;28;19971;-70
2022/11/30 00:32:23;;;;;;;;;;;;;;;9.99;64.66;99089.19;5035483;28;19917;-70
2022/11/30 00:34:49;;;;;;;;;;;;;;;9.99;64.75;99083.97;5035197;28;19916;-70
2022/11/30 00:37:14;;;;;;;;;;;;;;;9.96;64.74;99083.25;5053349;28;20019;-70
2022/11/30 00:39:39;;;;;;;;;;;;;;;9.98;64.86;99084.91;5052737;28;19990;-72
2022/11/30 00:42:04;;;;;;;;;;;;;;;9.96;64.70;99075.44;5018398;28;19931;-70
2022/11/30 00:44:30;;;;;;;;;;;;;;;9.96;64.82;99074.56;5035178;28;19917;-68
2022/11/30 00:46:55;;;;;;;;;;;;;;;9.96;64.73;99064.16;5034794;28;20291;-68
2022/11/30 00:49:20;;;;;;;;;;;;;;;9.95;64.85;99059.88;5034988;28;19921;-70
2022/11/30 00:51:46;;;;;;;;;;;;;;;9.94;64.85;99068.66;5018375;28;19987;-70
2022/11/30 00:54:11;;;;;;;;;;;;;;;9.94;64.80;99069.47;5035030;28;19920;-70
2022/11/30 00:56:36;;;;;;;;;;;;;;;9.94;64.61;99066.84;5052496;28;19924;-70
2022/11/30 00:59:01;;;;;;;;;;;;;;;9.94;64.69;99060.81;5053158;28;20372;-69
2022/11/30 01:01:27;;;;;;;;;;;;;;;9.93;64.67;99070.44;5034763;28;19921;-69
2022/11/30 01:03:52;;;;;;;;;;;;;;;9.93;64.54;99065.22;5052574;28;19923;-69
2022/11/30 01:06:17;;;;;;;;;;;;;;;9.93;64.63;99060.00;5018559;28;20035;-69
2022/11/30 01:08:43;;;;;;;;;;;;;;;9.93;64.67;99065.22;5034790;28;20380;-69
2022/11/30 01:11:12;;;;;;;;;;;;;;;9.93;64.54;99062.59;5034818;28;19967;-70
2022/11/30 01:13:37;;;;;;;;;;;;;;;9.93;64.72;99054.78;5034897;28;19916;-68
2022/11/30 01:16:07;;;;;;;;;;;;;;;9.94;64.60;99053.00;5052493;28;19924;-70
2022/11/30 01:18:34;;;;;;;;;;;;;;;9.94;64.62;99055.59;5034255;28;20402;-70
2022/11/30 01:20:59;;;;;;;;;;;;;;;9.93;64.72;99044.34;5034638;28;19979;-70
2022/11/30 01:23:25;;;;;;;;;;;;;;;9.93;64.50;99046.97;5052613;28;19967;-69
2022/11/30 01:25:54;;;;;;;;;;;;;;;9.94;64.50;99050.38;5034754;28;19921;-70
2022/11/30 01:28:19;;;;;;;;;;;;;;;9.94;64.55;99047.78;5018038;28;20307;-69
2022/11/30 01:30:44;;;;;;;;;;;;;;;9.94;64.49;99056.44;5052212;28;19917;-68
2022/11/30 01:33:09;;;;;;;;;;;;;;;9.94;64.42;99056.44;5018100;28;19916;-69
2022/11/30 01:35:35;;;;;;;;;;;;;;;9.93;64.40;99052.16;5034657;28;19921;-69
2022/11/30 01:38:00;;;;;;;;;;;;;;;9.94;64.33;99050.38;5018074;28;19925;-68
2022/11/30 01:40:25;;;;;;;;;;;;;;;9.93;64.58;99046.97;5051614;28;19920;-68
2022/11/30 01:42:51;;;;;;;;;;;;;;;9.94;64.28;99048.59;5050967;28;19925;-71
2022/11/30 01:45:16;;;;;;;;;;;;;;;9.94;64.49;99047.78;5067918;28;19924;-69
2022/11/30 01:47:47;;;;;;;;;;;;;;;9.93;64.54;99041.75;5052144;28;19917;-71
2022/11/30 01:50:20;;;;;;;;;;;;;;;9.91;64.46;99038.38;5067043;28;20315;-70
2022/11/30 01:52:46;;;;;;;;;;;;;;;9.93;64.35;99043.50;5032031;28;19917;-70
2022/11/30 01:55:19;;;;;;;;;;;;;;;9.93;64.37;99041.75;5034848;28;19944;-70
2022/11/30 01:57:55;;;;;;;;;;;;;;;9.94;64.54;99038.16;5068903;28;20393;-69
2022/11/30 02:00:20;;;;;;;;;;;;;;;9.94;64.37;99034.75;5071796;28;19935;-70
2022/11/30 02:02:55;;;;;;;;;;;;;;;9.93;64.43;99033.91;5054944;28;19917;-69
2022/11/30 02:05:21;;;;;;;;;;;;;;;9.93;64.62;99039.13;5054614;28;19960;-70
2022/11/30 02:07:46;;;;;;;;;;;;;;;9.93;64.52;99031.31;5071754;28;20403;-70
2022/11/30 02:10:15;;;;;;;;;;;;;;;9.94;64.46;99025.13;5054624;28;19917;-69
2022/11/30 02:13:00;;;;;;;;;;;;;;;9.94;64.42;99034.75;5071397;28;20429;-67
2022/11/30 02:15:26;;;;;;;;;;;;;;;9.94;64.45;99029.53;5055633;28;19940;-68
2022/11/30 02:17:51;;;;;;;;;;;;;;;9.93;64.54;99028.69;5071271;28;19920;-69
2022/11/30 02:20:35;;;;;;;;;;;;;;;9.93;64.42;99033.91;5037410;28;19927;-68
2022/11/30 02:23:03;;;;;;;;;;;;;;;9.93;64.54;99026.09;5055453;28;20050;-68
2022/11/30 02:25:35;;;;;;;;;;;;;;;9.93;64.36;99033.91;5055735;28;20307;-68
2022/11/30 02:28:09;;;;;;;;;;;;;;;9.95;64.50;99033.81;5055826;28;19975;-68
2022/11/30 02:30:35;;;;;;;;;;;;;;;9.95;64.26;99026.00;5055781;28;19940;-68
2022/11/30 02:33:01;;;;;;;;;;;;;;;9.93;64.37;99023.47;5071532;28;19917;-68
2022/11/30 02:35:31;;;;;;;;;;;;;;;9.95;64.23;99023.38;5054329;28;19916;-68
2022/11/30 02:37:56;;;;;;;;;;;;;;;9.94;64.14;99030.34;5054338;28;19974;-69
2022/11/30 02:40:22;;;;;;;;;;;;;;;9.95;64.06;99031.19;5070324;28;19917;-69
2022/11/30 02:42:47;;;;;;;;;;;;;;;9.94;64.19;99034.75;5053874;28;19924;-69
2022/11/30 02:45:13;;;;;;;;;;;;;;;9.96;64.22;99040.69;5055285;28;19921;-69
2022/11/30 02:47:54;;;;;;;;;;;;;;;9.96;63.91;99044.13;5070600;28;20011;-69
2022/11/30 02:50:24;;;;;;;;;;;;;;;9.95;63.99;99041.63;5070630;28;19985;-69
2022/11/30 02:52:49;;;;;;;;;;;;;;;9.95;64.12;99049.47;5070680;28;19960;-69
2022/11/30 02:55:15;;;;;;;;;;;;;;;9.93;63.97;99049.56;5062763;28;20034;-69
2022/11/30 02:57:40;;;;;;;;;;;;;;;9.93;63.96;99048.72;5037451;28;20449;-69
2022/11/30 03:00:06;;;;;;;;;;;;;;;9.91;63.92;99051.41;5054899;28;19921;-69
2022/11/30 03:02:32;;;;;;;;;;;;;;;9.92;63.87;99057.50;5037168;28;19943;-68
2022/11/30 03:04:57;;;;;;;;;;;;;;;9.91;63.92;99054.03;5053512;28;20062;-68
2022/11/30 03:07:22;;;;;;;;;;;;;;;9.92;63.85;99052.28;5020608;28;19917;-70
2022/11/30 03:09:48;;;;;;;;;;;;;;;9.92;63.72;99058.31;5036260;28;19917;-69
2022/11/30 03:12:13;;;;;;;;;;;;;;;9.93;63.68;99061.75;5055085;28;19917;-69
2022/11/30 03:14:38;;;;;;;;;;;;;;;9.93;63.84;99065.22;5037565;28;19917;-69
2022/11/30 03:17:05;;;;;;;;;;;;;;;9.92;63.76;99063.53;5037073;28;19982;-68
2022/11/30 03:19:31;;;;;;;;;;;;;;;9.92;63.76;99063.53;5036561;28;20421;-69
2022/11/30 03:21:56;;;;;;;;;;;;;;;9.92;63.66;99065.31;5036943;28;19917;-68
2022/11/30 03:24:21;;;;;;;;;;;;;;;9.90;63.69;99062.81;5036744;28;19966;-69
2022/11/30 03:26:47;;;;;;;;;;;;;;;9.90;63.98;99069.81;5054644;28;19924;-69
2022/11/30 03:29:12;;;;;;;;;;;;;;;9.90;63.80;99064.59;5036816;28;19927;-69
2022/11/30 03:31:37;;;;;;;;;;;;;;;9.91;63.74;99067.06;5054353;28;19916;-69
2022/11/30 03:34:02;;;;;;;;;;;;;;;9.91;63.68;99068.84;5054261;28;20394;-70
2022/11/30 03:36:28;;;;;;;;;;;;;;;9.90;63.60;99072.41;5054516;28;19916;-69
2022/11/30 03:38:53;;;;;;;;;;;;;;;9.90;63.75;99081.06;5036325;28;20353;-71
2022/11/30 03:41:18;;;;;;;;;;;;;;;9.90;63.80;99072.41;5019608;28;19917;-69
2022/11/30 03:43:44;;;;;;;;;;;;;;;9.89;63.77;99071.56;5036012;28;19923;-70
2022/11/30 03:46:09;;;;;;;;;;;;;;;9.89;63.67;99074.16;5037167;28;20342;-70
2022/11/30 03:48:35;;;;;;;;;;;;;;;9.90;63.74;99078.47;5053740;28;19916;-69
2022/11/30 03:51:00;;;;;;;;;;;;;;;9.91;63.68;99080.09;5036171;28;19916;-69
2022/11/30 03:53:25;;;;;;;;;;;;;;;9.91;63.64;99082.72;5036317;28;19939;-69
2022/11/30 03:55:55;;;;;;;;;;;;;;;9.91;63.69;99076.66;5036291;28;20014;-69
2022/11/30 03:58:20;;;;;;;;;;;;;;;9.90;63.68;99081.06;5036674;28;20402;-69
2022/11/30 04:00:46;;;;;;;;;;;;;;;9.90;63.70;99069.81;5053882;28;19921;-69
2022/11/30 04:03:11;;;;;;;;;;;;;;;9.90;63.65;99070.63;5035596;28;19927;-69
2022/11/30 04:05:36;;;;;;;;;;;;;;;9.91;63.74;99071.47;5035474;28;20300;-69
2022/11/30 04:08:02;;;;;;;;;;;;;;;9.90;63.73;99078.47;5068666;28;20319;-70
2022/11/30 04:10:27;;;;;;;;;;;;;;;9.89;63.63;99082.00;5035566;28;19917;-69
2022/11/30 04:12:52;;;;;;;;;;;;;;;9.90;63.86;99085.44;5052490;28;20007;-69
2022/11/30 04:15:18;;;;;;;;;;;;;;;9.90;63.66;99091.50;5052409;28;20068;-69
2022/11/30 04:17:43;;;;;;;;;;;;;;;9.90;63.68;99091.50;5035661;28;19924;-70
2022/11/30 04:20:09;;;;;;;;;;;;;;;9.90;63.69;99109.75;5068137;28;19990;-70
2022/11/30 04:22:34;;;;;;;;;;;;;;;9.89;63.71;99112.47;5051391;28;19956;-70
2022/11/30 04:24:59;;;;;;;;;;;;;;;9.88;63.70;99110.78;5053152;28;20284;-70
2022/11/30 04:27:24;;;;;;;;;;;;;;;9.89;63.68;99110.69;5035085;28;20284;-69
2022/11/30 04:29:50;;;;;;;;;;;;;;;9.88;63.63;99111.63;5066806;28;19947;-73
2022/11/30 04:32:15;;;;;;;;;;;;;;;9.88;63.72;99114.25;5053262;28;19947;-70
2022/11/30 04:34:40;;;;;;;;;;;;;;;9.87;63.69;99112.56;5053618;28;19921;-70
2022/11/30 04:37:06;;;;;;;;;;;;;;;9.88;63.82;99118.59;5034976;28;20035;-71
2022/11/30 04:39:32;;;;;;;;;;;;;;;9.88;63.60;99121.22;5018136;28;19920;-70
2022/11/30 04:41:57;;;;;;;;;;;;;;;9.88;63.56;99113.38;5017460;28;19978;-69
2022/11/30 04:44:23;;;;;;;;;;;;;;;9.88;63.72;99114.25;5033570;28;19917;-72
2022/11/30 04:46:48;;;;;;;;;;;;;;;9.89;63.57;99115.06;5058489;28;20384;-71
2022/11/30 04:49:13;;;;;;;;;;;;;;;9.86;63.91;99118.69;5051005;28;19924;-72
2022/11/30 04:51:38;;;;;;;;;;;;;;;9.93;67.55;99133.00;5051251;28;19924;-77
2022/11/30 04:54:04;;;;;;;;;;;;;;;10.01;68.10;99134.25;5033398;28;20007;-77
2022/11/30 04:56:29;;;;;;;;;;;;;;;10.02;66.86;99134.16;5040077;28;19925;-75
2022/11/30 04:58:54;;;;;;;;;;;;;;;10.20;71.49;99131.22;5034554;28;20417;-74
2022/11/30 05:01:20;;;;;;;;;;;;;;;10.32;70.22;99138.22;5035450;28;19925;-72
2022/11/30 05:03:45;;;;;;;;;;;;;;;10.38;70.37;99139.63;5016747;28;19916;-70
2022/11/30 05:06:10;;;;;;;;;;;;;;;10.42;70.32;99141.91;5051251;28;20276;-72
2022/11/30 05:08:35;;;;;;;;;;;;;;;10.39;69.45;99141.25;5049834;28;19921;-71
2022/11/30 05:11:01;;;;;;;;;;;;;;;10.40;68.84;99135.13;5050334;28;20414;-75
2022/11/30 05:13:26;;;;;;;;;;;;;;;10.41;68.26;99142.00;5033434;28;19947;-71
2022/11/30 05:15:54;;;;;;;;;;;;;;;10.39;67.93;99139.50;5041449;28;20303;-72
2022/11/30 05:18:20;;;;;;;;;;;;;;;10.39;67.77;99138.66;5057940;28;19917;-72
2022/11/30 05:20:46;;;;;;;;;;;;;;;10.36;67.44;99136.25;5012323;28;19921;-72
2022/11/30 05:23:12;;;;;;;;;;;;;;;10.32;67.38;99133.84;5054357;28;19959;-73
2022/11/30 05:25:37;;;;;;;;;;;;;;;10.30;67.34;99130.50;5037964;28;19956;-74
2022/11/30 05:28:02;;;;;;;;;;;;;;;10.27;67.07;99133.31;5029597;28;20031;-71
2022/11/30 05:30:28;;;;;;;;;;;;;;;10.27;66.89;99129.88;5055288;28;20020;-71
2022/11/30 05:32:53;;;;;;;;;;;;;;;10.25;67.08;99129.97;5033054;28;19917;-71
2022/11/30 05:35:18;;;;;;;;;;;;;;;10.23;66.76;99124.03;5019753;28;20375;-76
2022/11/30 05:37:44;;;;;;;;;;;;;;;10.30;71.18;99127.88;5060886;28;19960;-73
2022/11/30 05:40:09;;;;;;;;;;;;;;;10.36;69.88;99133.66;5036153;28;19963;-72
2022/11/30 05:42:34;;;;;;;;;;;;;;;10.36;69.08;99138.88;5061340;28;20000;-72
2022/11/30 05:45:00;;;;;;;;;;;;;;;10.34;68.43;99151.19;5037850;28;20004;-69
2022/11/30 05:47:25;;;;;;;;;;;;;;;10.32;68.06;99148.66;5036160;28;19966;-71
2022/11/30 05:49:50;;;;;;;;;;;;;;;10.30;67.64;99159.19;5037306;28;20177;-71
2022/11/30 05:52:16;;;;;;;;;;;;;;;10.28;67.53;99168.09;5037320;28;19924;-71
2022/11/30 05:54:41;;;;;;;;;;;;;;;10.24;67.34;99166.63;5036087;28;19925;-70
2022/11/30 05:57:06;;;;;;;;;;;;;;;10.23;67.34;99165.78;5037209;28;19924;-70
2022/11/30 05:59:31;;;;;;;;;;;;;;;10.22;67.30;99163.28;5037143;28;19951;-71
2022/11/30 06:01:57;;;;;;;;;;;;;;;10.20;67.12;99160.78;5036111;28;19944;-70
2022/11/30 06:04:22;;;;;;;;;;;;;;;10.19;66.86;99140.00;5037361;28;19921;-70
2022/11/30 06:06:48;;;;;;;;;;;;;;;10.17;66.72;99142.72;5037371;28;19917;-69
2022/11/30 06:09:13;;;;;;;;;;;;;;;10.14;66.61;99135.09;5064149;28;19974;-69
2022/11/30 06:11:39;;;;;;;;;;;;;;;10.14;66.67;99140.31;5070723;28;20384;-70
2022/11/30 06:14:04;;;;;;;;;;;;;;;10.13;66.26;99146.47;5070858;28;19921;-69
2022/11/30 06:16:29;;;;;;;;;;;;;;;10.11;66.42;99145.75;5071049;28;20518;-70
2022/11/30 06:18:54;;;;;;;;;;;;;;;10.09;66.31;99158.06;5062995;28;19921;-70
2022/11/30 06:21:20;;;;;;;;;;;;;;;10.08;66.10;99161.59;5040867;28;20359;-69
2022/11/30 06:23:45;;;;;;;;;;;;;;;10.06;65.90;99160.88;5024039;28;19935;-69
2022/11/30 06:26:11;;;;;;;;;;;;;;;10.05;65.95;99160.03;5040936;28;19955;-70
2022/11/30 06:28:36;;;;;;;;;;;;;;;10.06;65.63;99147.84;5058828;28;19968;-69
2022/11/30 06:31:02;;;;;;;;;;;;;;;10.05;65.47;99159.19;5040983;28;20303;-68
2022/11/30 06:33:27;;;;;;;;;;;;;;;10.03;65.52;99161.91;5058528;28;19938;-70
2022/11/30 06:35:53;;;;;;;;;;;;;;;10.03;65.32;99163.69;5040905;28;19916;-69
2022/11/30 06:38:18;;;;;;;;;;;;;;;10.03;65.36;99167.13;5041078;28;20343;-69
2022/11/30 06:40:43;;;;;;;;;;;;;;;10.01;65.18;99168.16;5040862;28;19917;-70
2022/11/30 06:43:09;;;;;;;;;;;;;;;10.03;65.12;99171.53;5040789;28;19920;-69
2022/11/30 06:45:34;;;;;;;;;;;;;;;10.03;65.02;99181.94;5036787;28;19966;-69
2022/11/30 06:47:59;;;;;;;;;;;;;;;10.02;64.97;99188.09;5021205;28;19917;-69
2022/11/30 06:50:25;;;;;;;;;;;;;;;10.03;64.98;99181.94;5037598;28;20445;-69
2022/11/30 06:52:50;;;;;;;;;;;;;;;10.05;64.69;99182.69;5037849;28;19917;-70
2022/11/30 06:55:15;;;;;;;;;;;;;;;10.06;64.62;99189.56;5054843;28;19920;-69
2022/11/30 06:57:40;;;;;;;;;;;;;;;10.06;64.57;99189.56;5070954;28;19925;-70
2022/11/30 07:00:07;;;;;;;;;;;;;;;10.07;64.36;99186.88;5053890;28;20034;-68
2022/11/30 07:02:32;;;;;;;;;;;;;;;10.09;64.58;99189.38;5070671;28;19925;-69
2022/11/30 07:04:57;;;;;;;;;;;;;;;10.10;64.30;99191.88;5070382;28;19970;-69
2022/11/30 07:07:22;;;;;;;;;;;;;;;10.12;64.03;99195.22;5055377;28;19920;-70
2022/11/30 07:09:48;;;;;;;;;;;;;;;10.14;64.20;99195.09;5070098;28;19940;-69
2022/11/30 07:12:14;;;;;;;;;;;;;;;10.14;64.08;99190.72;5070354;28;20015;-71
2022/11/30 07:14:39;;;;;;;;;;;;;;;10.15;64.04;99194.16;5070461;28;19924;-70
2022/11/30 07:17:04;;;;;;;;;;;;;;;10.16;63.93;99193.22;5036668;28;19924;-68
2022/11/30 07:19:30;;;;;;;;;;;;;;;10.18;63.62;99188.72;5054625;28;20396;-69
2022/11/30 07:21:55;;;;;;;;;;;;;;;10.21;63.60;99191.13;5053193;28;19917;-69
2022/11/30 07:27:04;;;;;;;;;;;;;;;10.25;63.41;99190.00;5054648;28;19951;-69
2022/11/30 07:29:30;;;;;;;;;;;;;;;10.28;63.29;99199.41;5052602;28;19967;-71
2022/11/30 07:31:55;;;;;;;;;;;;;;;10.28;63.26;99189.78;5036902;28;20386;-69
2022/11/30 07:34:21;;;;;;;;;;;;;;;10.31;62.98;99180.94;5036525;28;20394;-69
2022/11/30 07:36:46;;;;;;;;;;;;;;;10.32;63.11;99190.41;5036515;28;19924;-68
2022/11/30 07:39:12;;;;;;;;;;;;;;;10.32;63.10;99201.69;5020589;28;20014;-69
2022/11/30 07:41:37;;;;;;;;;;;;;;;10.33;62.91;99210.38;5036710;28;20425;-68
2022/11/30 07:44:03;;;;;;;;;;;;;;;10.34;62.71;99201.59;5036482;28;19917;-69
2022/11/30 07:46:30;;;;;;;;;;;;;;;10.34;62.79;99200.78;5036700;28;19916;-71
2022/11/30 07:48:55;;;;;;;;;;;;;;;10.34;62.86;99200.78;5036288;28;19979;-70
2022/11/30 07:51:21;;;;;;;;;;;;;;;10.36;62.55;99197.13;5054173;28;19920;-69
2022/11/30 07:53:46;;;;;;;;;;;;;;;10.35;62.57;99192.00;5054127;28;19982;-73
2022/11/30 07:56:12;;;;;;;;;;;;;;;10.34;62.71;99209.44;5036275;28;19924;-68
2022/11/30 07:58:38;;;;;;;;;;;;;;;10.36;62.30;99207.56;5019026;28;19920;-69
2022/11/30 08:01:04;;;;;;;;;;;;;;;10.34;62.60;99208.59;5036222;28;19927;-70
2022/11/30 08:03:29;;;;;;;;;;;;;;;10.36;62.50;99214.53;5036104;28;19924;-69
2022/11/30 08:05:58;;;;;;;;;;;;;;;10.35;62.60;99210.28;5036127;28;20379;-69
2022/11/30 08:08:24;;;;;;;;;;;;;;;10.36;62.48;99201.50;5053629;28;20020;-70
2022/11/30 08:10:49;;;;;;;;;;;;;;;10.37;62.17;99204.00;5036031;28;20020;-68
2022/11/30 08:13:14;;;;;;;;;;;;;;;10.38;62.35;99215.28;5054076;28;19916;-69
2022/11/30 08:15:40;;;;;;;;;;;;;;;10.36;62.14;99211.94;5019189;28;19978;-68
2022/11/30 08:18:05;;;;;;;;;;;;;;;10.37;62.34;99217.06;5053701;28;19966;-69
2022/11/30 08:20:31;;;;;;;;;;;;;;;10.36;62.24;99219.75;5018889;28;19920;-69
2022/11/30 08:22:57;;;;;;;;;;;;;;;10.37;62.01;99218.84;5035832;28;19923;-69
2022/11/30 08:25:22;;;;;;;;;;;;;;;10.37;62.17;99218.84;5036049;28;19920;-71
2022/11/30 08:27:47;;;;;;;;;;;;;;;10.39;61.97;99212.59;5019201;28;20007;-72
2022/11/30 08:30:13;;;;;;;;;;;;;;;10.38;62.16;99208.28;5035623;28;19944;-71
2022/11/30 08:32:38;;;;;;;;;;;;;;;10.39;61.94;99204.75;5035737;28;19939;-71
2022/11/30 08:35:03;;;;;;;;;;;;;;;10.40;62.23;99209.00;5035341;28;20024;-69
2022/11/30 08:37:29;;;;;;;;;;;;;;;10.42;62.07;99207.16;5035535;28;19917;-71
2022/11/30 08:39:54;;;;;;;;;;;;;;;10.43;61.77;99203.59;5053154;28;20015;-71
2022/11/30 08:42:19;;;;;;;;;;;;;;;10.44;62.14;99205.28;5018798;28;19917;-71
2022/11/30 08:44:45;;;;;;;;;;;;;;;10.45;61.78;99203.47;5015041;28;19921;-71
2022/11/30 08:47:10;;;;;;;;;;;;;;;10.47;61.87;99192.00;5032057;28;20414;-70
2022/11/30 08:49:35;;;;;;;;;;;;;;;10.48;61.83;99188.47;5032338;28;19917;-72
2022/11/30 08:52:00;;;;;;;;;;;;;;;10.51;61.75;99190.00;5032652;28;19924;-71
2022/11/30 08:54:26;;;;;;;;;;;;;;;10.54;61.55;99183.75;5031667;28;19925;-71
2022/11/30 08:56:51;;;;;;;;;;;;;;;10.53;61.73;99184.69;5032980;28;19921;-72
2022/11/30 08:59:16;;;;;;;;;;;;;;;10.54;61.76;99184.59;5020558;28;20007;-72
2022/11/30 09:01:42;;;;;;;;;;;;;;;10.54;61.64;99181.16;5032955;28;19984;-70
2022/11/30 09:04:07;;;;;;;;;;;;;;;10.56;61.52;99179.25;5014966;28;19924;-71
2022/11/30 09:06:32;;;;;;;;;;;;;;;10.58;61.36;99177.38;5015250;28;19917;-71
2022/11/30 09:08:58;;;;;;;;;;;;;;;10.57;61.36;99183.56;5014999;28;19940;-71
2022/11/30 09:11:27;;;;;;;;;;;;;;;10.56;61.55;99190.53;4998497;28;19917;-70
2022/11/30 09:13:53;;;;;;;;;;;;;;;10.53;61.65;99188.16;5015167;28;19917;-71
2022/11/30 09:16:19;;;;;;;;;;;;;;;10.54;61.32;99183.75;5015370;28;19924;-72
2022/11/30 09:18:44;;;;;;;;;;;;;;;10.50;61.42;99186.56;5014804;28;20322;-71
2022/11/30 09:21:11;;;;;;;;;;;;;;;10.49;61.41;99179.69;5014987;28;19924;-74
2022/11/30 09:23:36;;;;;;;;;;;;;;;10.49;61.47;99184.91;5015069;28;20011;-71
2022/11/30 09:26:03;;;;;;;;;;;;;;;10.47;61.27;99180.75;5031380;28;20016;-73
2022/11/30 09:28:32;;;;;;;;;;;;;;;10.47;61.32;99178.97;5015053;28;20364;-71
2022/11/30 09:31:00;;;;;;;;;;;;;;;10.47;61.71;99172.91;5031133;28;19920;-71
2022/11/30 09:33:26;;;;;;;;;;;;;;;10.47;61.24;99180.75;5032626;28;19939;-72
2022/11/30 09:35:57;;;;;;;;;;;;;;;10.47;61.46;99175.53;5031525;28;19921;-71
2022/11/30 09:38:23;;;;;;;;;;;;;;;10.48;61.22;99177.16;5014938;28;19917;-72
2022/11/30 09:40:52;;;;;;;;;;;;;;;10.48;61.43;99177.16;5015029;28;19931;-71
2022/11/30 09:43:36;;;;;;;;;;;;;;;10.46;61.29;99173.84;5030710;28;19922;-73
2022/11/30 09:46:03;;;;;;;;;;;;;;;10.46;61.25;99171.22;5033033;28;20032;-70
2022/11/30 09:48:51;;;;;;;;;;;;;;;10.46;61.24;99173.84;5030987;28;19918;-70
2022/11/30 09:51:21;;;;;;;;;;;;;;;10.48;61.45;99166.72;4991326;28;20060;-71
2022/11/30 09:53:50;;;;;;;;;;;;;;;10.48;61.19;99158.91;4993811;28;20017;-70
2022/11/30 09:56:22;;;;;;;;;;;;;;;10.49;61.12;99161.41;5010351;28;19928;-71
2022/11/30 09:58:50;;;;;;;;;;;;;;;10.48;61.21;99157.16;5010186;28;19960;-70
2022/11/30 10:01:18;;;;;;;;;;;;;;;10.48;61.33;99156.28;5010537;28;20380;-71
2022/11/30 10:03:43;;;;;;;;;;;;;;;10.48;61.35;99157.16;5010519;28;19917;-70
2022/11/30 10:06:19;;;;;;;;;;;;;;;10.50;61.42;99157.03;5010509;28;19948;-69
2022/11/30 10:09:03;;;;;;;;;;;;;;;10.49;61.09;99158.78;5010354;28;19925;-70
2022/11/30 10:11:29;;;;;;;;;;;;;;;10.49;61.27;99148.34;5010349;28;20385;-70
2022/11/30 10:13:58;;;;;;;;;;;;;;;10.50;61.10;99155.25;5005799;28;19969;-73
2022/11/30 10:16:42;;;;;;;;;;;;;;;10.50;61.25;99162.25;4957968;28;19922;-71
2022/11/30 10:19:22;;;;;;;;;;;;;;;10.52;60.96;99154.31;4990661;28;19928;-72
2022/11/30 10:21:50;;;;;;;;;;;;;;;10.53;61.16;99161.19;4978497;28;19918;-70
2022/11/30 10:24:38;;;;;;;;;;;;;;;10.55;61.00;99154.09;4984581;28;20300;-71
2022/11/30 10:27:24;;;;;;;;;;;;;;;10.59;61.08;99150.34;4975085;28;20046;-71
2022/11/30 10:29:49;;;;;;;;;;;;;;;10.63;60.92;99143.97;5013691;28;19949;-70
2022/11/30 10:32:18;;;;;;;;;;;;;;;10.66;60.77;99136.75;5013848;28;19960;-69
2022/11/30 10:34:45;;;;;;;;;;;;;;;10.70;60.51;99139.97;4997834;28;20391;-70
2022/11/30 10:37:13;;;;;;;;;;;;;;;10.71;60.46;99135.59;4997633;28;20004;-71
2022/11/30 10:39:41;;;;;;;;;;;;;;;10.71;60.72;99138.22;5013717;28;20498;-70
2022/11/30 10:42:11;;;;;;;;;;;;;;;10.72;60.76;99143.31;5013188;28;19921;-71
2022/11/30 10:44:40;;;;;;;;;;;;;;;10.72;60.42;99134.63;4997425;28;19925;-71
2022/11/30 10:47:19;;;;;;;;;;;;;;;10.75;60.44;99137.03;4980740;28;19918;-71
2022/11/30 10:49:45;;;;;;;;;;;;;;;10.75;60.49;99143.09;4980847;28;20388;-70
2022/11/30 10:52:11;;;;;;;;;;;;;;;10.78;60.16;99136.81;4997048;28;19917;-70
2022/11/30 10:54:36;;;;;;;;;;;;;;;10.79;60.23;99134.09;4996855;28;20435;-71
2022/11/30 10:57:02;;;;;;;;;;;;;;;10.80;60.28;99140.16;4996700;28;19961;-70
2022/11/30 10:59:49;;;;;;;;;;;;;;;10.81;60.11;99144.44;5013143;28;19928;-71
2022/11/30 11:02:34;;;;;;;;;;;;;;;10.82;60.31;99144.34;4996724;28;19924;-70
2022/11/30 11:05:18;;;;;;;;;;;;;;;10.86;59.90;99143.19;5050402;28;19975;-70
2022/11/30 11:07:56;;;;;;;;;;;;;;;10.91;60.16;99147.22;5037007;28;19964;-71
2022/11/30 11:10:41;;;;;;;;;;;;;;;10.91;59.87;99145.47;5036372;28;19921;-72
2022/11/30 11:13:07;;;;;;;;;;;;;;;10.93;59.78;99143.56;5054646;28;20406;-71
2022/11/30 11:15:33;;;;;;;;;;;;;;;10.93;59.76;99140.97;5036720;28;19921;-71
2022/11/30 11:18:16;;;;;;;;;;;;;;;10.93;59.85;99147.97;5036772;28;19923;-70
2022/11/30 11:20:42;;;;;;;;;;;;;;;10.92;60.11;99148.91;5036830;28;19925;-71
2022/11/30 11:23:26;;;;;;;;;;;;;;;10.93;60.24;99148.78;5054567;28;19917;-71
2022/11/30 11:25:52;;;;;;;;;;;;;;;10.95;59.86;99148.69;5037176;28;19990;-70
2022/11/30 11:28:20;;;;;;;;;;;;;;;10.93;59.79;99148.78;5036773;28;20364;-71
2022/11/30 11:30:45;;;;;;;;;;;;;;;10.94;59.97;99153.09;5036805;28;19948;-71
2022/11/30 11:33:11;;;;;;;;;;;;;;;10.96;60.06;99152.94;5054635;28;19917;-69
2022/11/30 11:35:37;;;;;;;;;;;;;;;10.96;59.92;99156.41;5036538;28;19917;-70
2022/11/30 11:38:04;;;;;;;;;;;;;;;10.96;59.93;99159.03;5019956;28;19974;-72
2022/11/30 11:40:29;;;;;;;;;;;;;;;10.98;59.82;99164.97;5019342;28;19920;-71
2022/11/30 11:42:57;;;;;;;;;;;;;;;10.96;59.99;99164.25;5019804;28;19966;-71
2022/11/30 11:45:24;;;;;;;;;;;;;;;10.98;59.90;99166.75;5036754;28;19928;-69
2022/11/30 11:48:00;;;;;;;;;;;;;;;10.96;59.86;99159.03;5036552;28;19923;-71
2022/11/30 11:50:25;;;;;;;;;;;;;;;10.93;60.07;99172.31;5036184;28;19970;-70
2022/11/30 11:53:05;;;;;;;;;;;;;;;10.91;59.99;99171.59;5036137;28;19917;-70
2022/11/30 11:55:30;;;;;;;;;;;;;;;10.89;60.17;99180.47;5035675;28;19970;-71
2022/11/30 11:57:57;;;;;;;;;;;;;;;10.85;60.28;99183.28;5069583;28;19920;-71
2022/11/30 12:00:24;;;;;;;;;;;;;;;10.83;60.49;99186.94;5069222;28;19943;-70
2022/11/30 12:03:08;;;;;;;;;;;;;;;10.81;60.50;99184.44;5069506;28;20315;-70
2022/11/30 12:05:52;;;;;;;;;;;;;;;10.80;60.49;99192.38;5036352;28;19939;-71
2022/11/30 12:08:18;;;;;;;;;;;;;;;10.79;60.64;99195.94;5069452;28;19920;-71
2022/11/30 12:10:46;;;;;;;;;;;;;;;10.75;60.83;99191.88;5054089;28;19982;-70
2022/11/30 12:13:18;;;;;;;;;;;;;;;10.74;60.65;99195.44;5069101;28;19917;-71
2022/11/30 12:16:03;;;;;;;;;;;;;;;10.71;61.03;99188.66;5069023;28;19917;-70
2022/11/30 12:18:34;;;;;;;;;;;;;;;10.72;60.79;99192.09;5053463;28;20011;-71
2022/11/30 12:21:01;;;;;;;;;;;;;;;10.68;61.06;99189.69;5068839;28;19932;-71
2022/11/30 12:23:56;;;;;;;;;;;;;;;10.69;60.79;99185.31;5068975;28;19963;-70
2022/11/30 12:26:27;;;;;;;;;;;;;;;10.67;61.03;99184.56;4991865;28;19917;-70
2022/11/30 12:29:02;;;;;;;;;;;;;;;10.65;60.98;99179.44;4975867;28;19922;-70
2022/11/30 12:31:34;;;;;;;;;;;;;;;10.65;61.20;99179.44;4959584;28;19976;-70
2022/11/30 12:34:07;;;;;;;;;;;;;;;10.65;61.21;99174.22;4975887;28;19925;-71
2022/11/30 12:36:39;;;;;;;;;;;;;;;10.63;61.18;99176.13;4975704;28;19922;-71
2022/11/30 12:39:08;;;;;;;;;;;;;;;10.63;61.45;99173.50;4975797;28;20384;-70
2022/11/30 12:41:49;;;;;;;;;;;;;;;10.60;61.32;99176.34;4975578;28;19918;-71
2022/11/30 12:44:27;;;;;;;;;;;;;;;10.63;61.31;99176.13;4975797;28;19976;-71
2022/11/30 12:46:57;;;;;;;;;;;;;;;10.62;61.48;99176.22;4991742;28;19922;-71
2022/11/30 12:49:25;;;;;;;;;;;;;;;10.60;61.39;99178.13;4975143;28;19922;-70
2022/11/30 12:51:57;;;;;;;;;;;;;;;10.58;61.35;99178.22;4991436;28;19925;-71
2022/11/30 12:54:28;;;;;;;;;;;;;;;10.58;61.20;99179.97;4975242;28;19976;-72